KMZZ/MZZ METAR and TAF weather

Enter ICAO airport designator
Station Type Date Time Source
KMZZ METAR 2020/09/19 20:55 UTC NOAA

KMZZ 192055Z AUTO 00000KT 1 1/4SM HZ VV007 19/04 A3031 RMK AO2 T01890042


Station Type Date Time Source
KMZZ Decoded METAR 2020/09/19 20:55 UTC NOAA

Station name not available
Sep 19, 2020 - 04:55 PM EDT / 2020.09.19 2055 UTC
Wind: Calm:0
Visibility: 1 1/4 mile(s):0
Sky conditions: obscured
Weather: haze
Temperature: 66.0 F (18.9 C)
Dew Point: 39.6 F (4.2 C)
Relative Humidity: 37%
Pressure (altimeter): 30.31 in. Hg (1026 hPa)
ob: KMZZ 192055Z AUTO 00000KT 1 1/4SM HZ VV007 19/04 A3031 RMK AO2 T01890042
cycle: 21

Station Type Date Time Source
KMZZ TAF UTC NOAA

Error!

Example: see airport list